createdAt,value
2022-10-02T00:01:55.694Z,1.77
2022-10-02T00:04:37.622Z,1.40
2022-10-02T00:07:06.038Z,1.83
2022-10-02T00:09:37.451Z,1.70
2022-10-02T00:12:08.541Z,1.73
2022-10-02T00:14:37.113Z,1.90
2022-10-02T00:17:04.032Z,1.77
2022-10-02T00:19:30.641Z,2.42
2022-10-02T00:21:59.998Z,1.52
2022-10-02T00:24:28.149Z,2.08
2022-10-02T00:27:02.896Z,1.60
2022-10-02T00:29:38.277Z,1.77
2022-10-02T00:32:16.874Z,1.50
2022-10-02T00:34:51.617Z,1.50
2022-10-02T00:37:28.265Z,1.42
2022-10-02T00:40:13.489Z,1.17
2022-10-02T00:43:12.335Z,1.70
2022-10-02T00:45:57.390Z,1.38
2022-10-02T00:48:32.548Z,1.65
2022-10-02T00:51:14.450Z,1.65
2022-10-02T00:53:54.200Z,1.70
2022-10-02T00:56:47.070Z,2.03
2022-10-02T00:59:33.561Z,2.30
2022-10-02T01:02:08.536Z,2.00
2022-10-02T01:04:36.768Z,1.55
2022-10-02T01:07:04.332Z,2.67
2022-10-02T01:09:30.846Z,2.05
2022-10-02T01:11:57.432Z,2.90
2022-10-02T01:14:33.510Z,2.40
2022-10-02T01:17:00.112Z,2.90
2022-10-02T01:19:31.096Z,2.70
2022-10-02T01:22:03.604Z,3.30
2022-10-02T01:24:34.216Z,2.55
2022-10-02T01:27:00.485Z,3.45
2022-10-02T01:29:26.809Z,2.78
2022-10-02T01:31:53.347Z,2.78
2022-10-02T01:34:19.768Z,3.33
2022-10-02T01:36:46.023Z,3.42
2022-10-02T01:39:12.441Z,3.25
2022-10-02T01:41:41.867Z,3.13
2022-10-02T01:44:09.141Z,3.85
2022-10-02T01:46:38.771Z,3.58
2022-10-02T01:49:17.178Z,4.23
2022-10-02T01:52:01.957Z,4.10
2022-10-02T01:54:28.194Z,3.88
2022-10-02T01:57:13.261Z,4.95
2022-10-02T01:59:58.369Z,4.65
2022-10-02T02:02:40.198Z,4.55
2022-10-02T02:05:21.671Z,5.45
2022-10-02T02:08:06.952Z,5.18
2022-10-02T02:10:33.218Z,4.88
2022-10-02T02:13:02.433Z,5.40
2022-10-02T02:15:30.992Z,5.28
2022-10-02T02:18:06.957Z,5.25
2022-10-02T02:20:36.592Z,6.25
2022-10-02T02:23:12.560Z,5.18
2022-10-02T02:25:40.749Z,5.95
2022-10-02T02:28:08.909Z,6.43
2022-10-02T02:30:36.817Z,5.45
2022-10-02T02:33:09.202Z,5.65
2022-10-02T02:35:37.825Z,5.18
2022-10-02T02:38:08.527Z,5.65
2022-10-02T02:40:37.297Z,5.53
2022-10-02T02:43:05.899Z,4.93
2022-10-02T02:45:34.719Z,4.45
2022-10-02T02:48:04.291Z,3.80
2022-10-02T02:50:36.262Z,4.45
2022-10-02T02:53:06.473Z,4.90
2022-10-02T02:55:42.845Z,4.32
2022-10-02T02:58:37.594Z,4.88
2022-10-02T03:01:04.022Z,4.53
2022-10-02T03:03:30.337Z,4.22
2022-10-02T03:06:01.554Z,4.15
2022-10-02T03:08:29.818Z,3.97
2022-10-02T03:10:59.181Z,3.90
2022-10-02T03:13:44.217Z,4.13
2022-10-02T03:16:29.315Z,3.95
2022-10-02T03:18:58.590Z,3.13
2022-10-02T03:21:46.905Z,3.15
2022-10-02T03:24:31.574Z,4.07
2022-10-02T03:27:16.503Z,3.20
2022-10-02T03:29:51.966Z,3.78
2022-10-02T03:32:18.586Z,3.13
2022-10-02T03:34:44.905Z,4.22
2022-10-02T03:37:11.574Z,4.15
2022-10-02T03:39:43.266Z,4.20
2022-10-02T03:42:13.496Z,3.15
2022-10-02T03:44:39.804Z,3.95
2022-10-02T03:47:06.059Z,4.78
2022-10-02T03:49:32.473Z,4.28
2022-10-02T03:51:58.727Z,4.18
2022-10-02T03:54:26.236Z,3.70
2022-10-02T03:56:54.434Z,4.30
2022-10-02T03:59:36.001Z,4.00
2022-10-02T04:02:04.861Z,4.03
2022-10-02T04:04:42.390Z,3.22
2022-10-02T04:07:14.986Z,4.00
2022-10-02T04:09:46.863Z,3.95
2022-10-02T04:12:14.717Z,3.92
2022-10-02T04:14:54.087Z,4.05
2022-10-02T04:17:25.827Z,3.53
2022-10-02T04:19:57.163Z,4.20
2022-10-02T04:22:45.586Z,4.38
2022-10-02T04:25:17.986Z,3.47
2022-10-02T04:27:47.372Z,3.50
2022-10-02T04:30:18.381Z,4.97
2022-10-02T04:32:45.043Z,3.88
2022-10-02T04:35:15.524Z,3.60
2022-10-02T04:37:44.867Z,3.67
2022-10-02T04:40:20.389Z,3.40
2022-10-02T04:42:49.608Z,3.28
2022-10-02T04:45:18.950Z,4.97
2022-10-02T04:47:45.206Z,3.40
2022-10-02T04:50:14.552Z,4.03
2022-10-02T04:52:46.865Z,3.45
2022-10-02T04:55:31.788Z,3.20
2022-10-02T04:58:16.841Z,2.70
2022-10-02T05:00:47.457Z,2.92
2022-10-02T05:03:26.606Z,2.72
2022-10-02T05:06:05.973Z,2.60
2022-10-02T05:08:32.251Z,3.45
2022-10-02T05:11:21.716Z,3.03
2022-10-02T05:14:07.795Z,3.53
2022-10-02T05:16:49.420Z,3.17
2022-10-02T05:19:34.161Z,3.53
2022-10-02T05:22:14.963Z,2.90
2022-10-02T05:24:48.567Z,3.83
2022-10-02T05:27:14.779Z,4.28
2022-10-02T05:29:47.870Z,3.47
2022-10-02T05:32:20.136Z,4.40
2022-10-02T05:34:49.396Z,4.97
2022-10-02T05:37:28.051Z,4.93
2022-10-02T05:40:01.573Z,4.38
2022-10-02T05:42:27.785Z,5.03
2022-10-02T05:44:56.221Z,5.45
2022-10-02T05:47:26.065Z,5.65
2022-10-02T05:49:59.781Z,5.87
2022-10-02T05:52:29.723Z,4.82
2022-10-02T05:55:18.286Z,5.40
2022-10-02T05:57:51.421Z,5.32
2022-10-02T06:00:20.889Z,4.80
2022-10-02T06:03:13.633Z,6.13
2022-10-02T06:05:48.691Z,6.18
2022-10-02T06:08:16.307Z,6.18
2022-10-02T06:10:48.328Z,6.43
2022-10-02T06:13:37.465Z,7.40
2022-10-02T06:16:03.761Z,7.88
2022-10-02T06:18:31.417Z,6.45
2022-10-02T06:21:02.601Z,6.63
2022-10-02T06:23:35.851Z,7.28
2022-10-02T06:26:10.188Z,6.72
2022-10-02T06:28:51.530Z,6.82
2022-10-02T06:31:35.950Z,6.57
2022-10-02T06:34:02.316Z,6.28
2022-10-02T06:36:29.173Z,5.93
2022-10-02T06:39:10.663Z,6.68
2022-10-02T06:41:47.405Z,6.13
2022-10-02T06:44:14.736Z,5.20
2022-10-02T06:47:11.906Z,5.10
2022-10-02T06:49:41.150Z,4.55
2022-10-02T06:52:37.168Z,4.90
2022-10-02T06:55:31.240Z,5.18
2022-10-02T06:58:03.965Z,4.80
2022-10-02T07:00:32.389Z,5.07
2022-10-02T07:02:59.541Z,5.68
2022-10-02T07:05:44.558Z,5.32
2022-10-02T07:08:30.376Z,4.60
2022-10-02T07:11:01.622Z,4.03
2022-10-02T07:13:36.733Z,5.75
2022-10-02T07:16:09.016Z,3.60
2022-10-02T07:18:35.309Z,3.22
2022-10-02T07:21:14.103Z,4.07
2022-10-02T07:23:44.527Z,3.47
2022-10-02T07:26:14.333Z,4.28
2022-10-02T07:28:44.453Z,3.42
2022-10-02T07:31:32.061Z,3.33
2022-10-02T07:34:21.095Z,3.28
2022-10-02T07:37:12.353Z,3.53
2022-10-02T07:39:58.940Z,2.88
2022-10-02T07:42:31.154Z,3.67
2022-10-02T07:45:02.929Z,3.67
2022-10-02T07:47:38.641Z,3.30
2022-10-02T07:50:17.197Z,3.10
2022-10-02T07:52:54.374Z,2.90
2022-10-02T07:55:21.723Z,2.70
2022-10-02T07:57:50.586Z,2.63
2022-10-02T08:00:17.895Z,2.85
2022-10-02T08:02:50.196Z,3.28
2022-10-02T08:05:18.187Z,3.17
2022-10-02T08:07:45.727Z,3.13
2022-10-02T08:10:14.558Z,2.33
2022-10-02T08:12:43.944Z,2.30
2022-10-02T08:15:16.701Z,2.33
2022-10-02T08:17:46.046Z,3.10
2022-10-02T08:20:31.285Z,2.70
2022-10-02T08:23:08.082Z,2.28
2022-10-02T08:25:38.427Z,2.30
2022-10-02T08:28:08.719Z,3.05
2022-10-02T08:30:35.980Z,2.20
2022-10-02T08:33:06.664Z,3.10
2022-10-02T08:38:02.532Z,2.88
2022-10-02T08:40:53.297Z,2.78
2022-10-02T08:46:07.063Z,2.60
2022-10-02T08:48:42.558Z,2.22
2022-10-02T08:51:08.849Z,2.65
2022-10-02T08:53:41.137Z,2.58
2022-10-02T08:56:19.191Z,2.08
2022-10-02T08:59:10.905Z,2.45
2022-10-02T09:01:40.330Z,2.95
2022-10-02T09:04:34.421Z,2.47
2022-10-02T09:07:24.788Z,2.40
2022-10-02T09:10:16.826Z,2.55
2022-10-02T09:13:12.191Z,2.00
2022-10-02T09:15:47.672Z,2.20
2022-10-02T09:18:40.080Z,2.45
2022-10-02T09:21:18.225Z,2.33
2022-10-02T09:24:03.795Z,2.75
2022-10-02T09:26:41.252Z,2.05
2022-10-02T09:29:11.408Z,2.22
2022-10-02T09:31:42.174Z,1.88
2022-10-02T09:34:09.780Z,2.38
2022-10-02T09:36:40.014Z,2.05
2022-10-02T09:39:13.313Z,2.20
2022-10-02T09:41:41.298Z,2.38
2022-10-02T09:44:28.784Z,3.00
2022-10-02T09:46:55.423Z,2.50
2022-10-02T09:49:35.966Z,2.65
2022-10-02T09:52:05.351Z,2.28
2022-10-02T09:54:41.029Z,2.70
2022-10-02T09:57:11.622Z,2.10
2022-10-02T09:59:44.611Z,2.33
2022-10-02T10:02:23.317Z,1.95
2022-10-02T10:05:21.295Z,2.65
2022-10-02T10:08:05.956Z,1.98
2022-10-02T10:10:56.026Z,2.40
2022-10-02T10:13:22.231Z,2.05
2022-10-02T10:16:03.977Z,1.92
2022-10-02T10:18:44.352Z,2.00
2022-10-02T10:21:30.182Z,2.60
2022-10-02T10:24:02.941Z,2.13
2022-10-02T10:26:39.477Z,2.00
2022-10-02T10:29:09.157Z,2.38
2022-10-02T10:31:41.654Z,2.63
2022-10-02T10:34:17.214Z,2.72
2022-10-02T10:37:10.307Z,2.33
2022-10-02T10:39:39.356Z,2.50
2022-10-02T10:42:21.037Z,1.98
2022-10-02T10:44:54.751Z,2.53
2022-10-02T10:47:30.581Z,2.15
2022-10-02T10:50:03.229Z,2.50
2022-10-02T10:52:35.284Z,2.42
2022-10-02T10:55:01.516Z,2.65
2022-10-02T10:57:32.400Z,1.75
2022-10-02T11:00:14.109Z,1.83
2022-10-02T11:02:56.418Z,1.75
2022-10-02T11:05:28.997Z,1.77
2022-10-02T11:07:55.236Z,1.88
2022-10-02T11:10:28.289Z,1.80
2022-10-02T11:13:01.656Z,1.90
2022-10-02T11:15:43.211Z,1.83
2022-10-02T11:18:32.344Z,1.85
2022-10-02T11:21:26.188Z,2.47
2022-10-02T11:23:56.033Z,2.03
2022-10-02T11:26:25.272Z,1.52
2022-10-02T11:28:52.150Z,2.28
2022-10-02T11:31:19.082Z,1.95
2022-10-02T11:33:48.957Z,2.38
2022-10-02T11:36:41.609Z,2.08
2022-10-02T11:39:08.062Z,1.92
2022-10-02T11:41:53.477Z,1.95
2022-10-02T11:44:22.144Z,2.20
2022-10-02T11:47:18.992Z,2.40
2022-10-02T11:50:02.343Z,2.25
2022-10-02T11:52:48.473Z,2.58
2022-10-02T11:55:25.853Z,2.08
2022-10-02T11:57:53.489Z,2.30
2022-10-02T12:00:42.598Z,2.17
2022-10-02T12:03:17.323Z,2.58
2022-10-02T12:06:15.458Z,2.42
2022-10-02T12:08:47.722Z,2.78
2022-10-02T12:11:21.569Z,2.17
2022-10-02T12:13:59.704Z,2.42
2022-10-02T12:16:33.961Z,2.42
2022-10-02T12:19:00.274Z,2.20
2022-10-02T12:21:48.478Z,2.20
2022-10-02T12:25:04.536Z,2.45
2022-10-02T12:27:30.777Z,2.10
2022-10-02T12:30:07.083Z,2.28
2022-10-02T12:32:45.663Z,2.13
2022-10-02T12:35:17.520Z,2.03
2022-10-02T12:37:56.423Z,2.40
2022-10-02T12:40:43.695Z,2.25
2022-10-02T12:43:17.378Z,1.75
2022-10-02T12:45:53.342Z,2.00
2022-10-02T12:48:26.160Z,1.88
2022-10-02T12:51:11.579Z,1.58
2022-10-02T12:53:50.091Z,2.05
2022-10-02T12:56:22.512Z,2.47
2022-10-02T12:59:00.146Z,2.08
2022-10-02T13:01:30.701Z,2.15
2022-10-02T13:04:27.956Z,2.25
2022-10-02T13:07:05.567Z,2.60
2022-10-02T13:09:31.809Z,1.80
2022-10-02T13:12:18.012Z,2.17
2022-10-02T13:14:52.796Z,2.33
2022-10-02T13:17:25.143Z,1.88
2022-10-02T13:20:00.449Z,2.40
2022-10-02T13:22:36.625Z,1.42
2022-10-02T13:25:26.182Z,1.40
2022-10-02T13:28:01.593Z,1.45
2022-10-02T13:30:33.585Z,1.70
2022-10-02T13:33:14.869Z,1.60
2022-10-02T13:35:41.086Z,1.63
2022-10-02T13:38:20.288Z,1.95
2022-10-02T13:41:07.488Z,1.58
2022-10-02T13:43:49.042Z,1.80
2022-10-02T13:46:38.579Z,1.63
2022-10-02T13:49:28.911Z,1.90
2022-10-02T13:52:07.446Z,2.08
2022-10-02T13:54:52.073Z,1.80
2022-10-02T13:57:33.680Z,1.52
2022-10-02T14:00:09.774Z,1.83
2022-10-02T14:02:39.553Z,1.88
2022-10-02T14:05:12.388Z,1.35
2022-10-02T14:07:49.717Z,1.35
2022-10-02T14:10:28.414Z,1.48
2022-10-02T14:13:07.669Z,1.92
2022-10-02T14:15:43.121Z,1.70
2022-10-02T14:18:21.449Z,2.22
2022-10-02T14:21:08.947Z,1.92
2022-10-02T14:23:38.035Z,2.00
2022-10-02T14:26:19.560Z,1.75
2022-10-02T14:28:48.924Z,1.58
2022-10-02T14:31:24.523Z,1.98
2022-10-02T14:34:09.632Z,1.70
2022-10-02T14:36:45.060Z,1.67
2022-10-02T14:39:14.414Z,1.70
2022-10-02T14:42:00.163Z,2.05
2022-10-02T14:44:28.439Z,2.15
2022-10-02T14:47:06.297Z,1.98
2022-10-02T14:49:41.785Z,1.75
2022-10-02T14:52:26.832Z,2.50
2022-10-02T14:54:53.105Z,2.97
2022-10-02T14:57:28.562Z,2.60
2022-10-02T14:59:55.045Z,2.17
2022-10-02T15:02:40.273Z,2.72
2022-10-02T15:05:17.647Z,3.67
2022-10-02T15:07:44.971Z,2.45
2022-10-02T15:10:16.201Z,2.58
2022-10-02T15:12:46.459Z,2.78
2022-10-02T15:15:24.992Z,1.80
2022-10-02T15:17:57.296Z,2.00
2022-10-02T15:20:26.243Z,1.80
2022-10-02T15:22:59.986Z,1.70
2022-10-02T15:25:43.261Z,2.00
2022-10-02T15:28:37.134Z,2.50
2022-10-02T15:31:33.613Z,1.80
2022-10-02T15:34:15.597Z,1.60
2022-10-02T15:37:02.126Z,2.10
2022-10-02T15:39:35.708Z,1.90
2022-10-02T15:42:12.260Z,1.83
2022-10-02T15:44:57.056Z,1.67
2022-10-02T15:47:32.107Z,1.70
2022-10-02T15:50:01.885Z,1.65
2022-10-02T15:52:51.281Z,1.70
2022-10-02T15:55:28.044Z,1.95
2022-10-02T15:58:14.530Z,1.70
2022-10-02T16:01:00.871Z,2.20
2022-10-02T16:03:44.871Z,1.95
2022-10-02T16:06:17.159Z,2.38
2022-10-02T16:09:03.285Z,1.70
2022-10-02T16:11:48.316Z,1.67
2022-10-02T16:14:18.890Z,2.17
2022-10-02T16:19:31.036Z,2.25
2022-10-02T16:22:18.353Z,2.10
2022-10-02T16:24:44.595Z,1.92
2022-10-02T16:27:30.266Z,1.92
2022-10-02T16:29:58.174Z,2.42
2022-10-02T16:32:24.738Z,2.55
2022-10-02T16:35:03.147Z,2.70
2022-10-02T16:37:46.092Z,2.15
2022-10-02T16:40:21.326Z,3.10
2022-10-02T16:42:48.022Z,2.15
2022-10-02T16:45:33.282Z,2.72
2022-10-02T16:48:09.273Z,2.42
2022-10-02T16:50:54.328Z,2.60
2022-10-02T16:53:25.244Z,2.45
2022-10-02T16:55:58.099Z,2.15
2022-10-02T16:58:29.727Z,2.08
2022-10-02T17:00:58.735Z,2.20
2022-10-02T17:03:28.892Z,2.25
2022-10-02T17:06:12.193Z,2.40
2022-10-02T17:08:43.242Z,1.75
2022-10-02T17:11:21.150Z,2.38
2022-10-02T17:13:54.125Z,2.03
2022-10-02T17:16:24.231Z,2.47
2022-10-02T17:18:55.562Z,2.45
2022-10-02T17:21:35.306Z,2.75
2022-10-02T17:24:17.689Z,3.10
2022-10-02T17:26:51.934Z,3.28
2022-10-02T17:29:33.268Z,3.17
2022-10-02T17:32:01.391Z,3.28
2022-10-02T17:34:31.870Z,3.42
2022-10-02T17:37:07.753Z,3.22
2022-10-02T17:39:37.823Z,3.60
2022-10-02T17:42:10.677Z,3.30
2022-10-02T17:44:45.942Z,3.03
2022-10-02T17:47:17.222Z,3.63
2022-10-02T17:49:44.646Z,3.88
2022-10-02T17:52:36.298Z,3.97
2022-10-02T17:55:40.914Z,3.50
2022-10-02T17:58:33.661Z,3.28
2022-10-02T18:01:09.186Z,3.25
2022-10-02T18:03:37.884Z,2.90
2022-10-02T18:08:53.401Z,3.15
2022-10-02T18:11:28.174Z,2.80
2022-10-02T18:13:59.308Z,2.50
2022-10-02T18:16:29.595Z,3.08
2022-10-02T18:19:05.856Z,3.10
2022-10-02T18:21:56.312Z,2.80
2022-10-02T18:24:22.509Z,3.50
2022-10-02T18:26:54.614Z,3.20
2022-10-02T18:29:20.822Z,3.47
2022-10-02T18:32:00.060Z,3.20
2022-10-02T18:34:43.939Z,2.80
2022-10-02T18:37:10.648Z,3.30
2022-10-02T18:39:41.814Z,2.80
2022-10-02T18:42:23.411Z,3.10
2022-10-02T18:44:52.672Z,2.92
2022-10-02T18:47:38.398Z,3.08
2022-10-02T18:50:10.785Z,2.63
2022-10-02T18:52:45.492Z,2.85
2022-10-02T18:55:33.214Z,2.35
2022-10-02T18:58:21.340Z,2.28
2022-10-02T19:01:03.103Z,2.40
2022-10-02T19:03:29.403Z,2.03
2022-10-02T19:05:58.236Z,2.67
2022-10-02T19:08:31.478Z,2.20
2022-10-02T19:10:57.729Z,2.45
2022-10-02T19:13:28.672Z,2.60
2022-10-02T19:15:55.837Z,3.28
2022-10-02T19:18:26.847Z,3.05
2022-10-02T19:20:56.196Z,2.95
2022-10-02T19:23:46.707Z,3.70
2022-10-02T19:26:20.838Z,3.88
2022-10-02T19:28:49.065Z,4.25
2022-10-02T19:31:20.011Z,3.92
2022-10-02T19:34:12.233Z,3.78
2022-10-02T19:36:39.955Z,3.47
2022-10-02T19:39:08.833Z,3.83
2022-10-02T19:41:41.808Z,3.20
2022-10-02T19:44:18.171Z,3.70
2022-10-02T19:46:48.342Z,2.65
2022-10-02T19:49:23.486Z,3.30
2022-10-02T19:51:50.820Z,2.78
2022-10-02T19:54:24.487Z,2.63
2022-10-02T19:56:53.866Z,2.55
2022-10-02T19:59:24.086Z,2.67
2022-10-02T20:01:52.161Z,3.30
2022-10-02T20:04:23.861Z,2.97
2022-10-02T20:06:55.721Z,3.08
2022-10-02T20:09:29.762Z,2.80
2022-10-02T20:12:03.610Z,2.63
2022-10-02T20:14:38.506Z,3.15
2022-10-02T20:17:10.822Z,2.65
2022-10-02T20:19:39.248Z,2.50
2022-10-02T20:22:11.163Z,2.45
2022-10-02T20:24:45.500Z,2.47
2022-10-02T20:27:34.851Z,2.97
2022-10-02T20:30:04.249Z,2.55
2022-10-02T20:32:33.018Z,2.75
2022-10-02T20:35:02.365Z,2.90
2022-10-02T20:37:34.766Z,2.75
2022-10-02T20:40:07.290Z,2.53
2022-10-02T20:42:40.477Z,2.40
2022-10-02T20:45:10.519Z,3.30
2022-10-02T20:47:45.708Z,2.83
2022-10-02T20:50:31.345Z,2.58
2022-10-02T20:52:57.596Z,3.45
2022-10-02T20:55:56.389Z,3.00
2022-10-02T20:58:40.720Z,3.13
2022-10-02T21:01:07.031Z,3.17
2022-10-02T21:03:45.440Z,3.30
2022-10-02T21:06:12.616Z,3.55
2022-10-02T21:08:58.347Z,2.97
2022-10-02T21:11:45.448Z,3.20
2022-10-02T21:14:12.230Z,2.40
2022-10-02T21:17:05.609Z,3.45
2022-10-02T21:19:41.789Z,2.50
2022-10-02T21:22:08.211Z,2.83
2022-10-02T21:24:52.990Z,4.10
2022-10-02T21:27:33.715Z,3.63
2022-10-02T21:30:11.667Z,3.25
2022-10-02T21:32:37.899Z,3.40
2022-10-02T21:35:09.216Z,3.00
2022-10-02T21:37:47.789Z,2.75
2022-10-02T21:40:17.096Z,2.58
2022-10-02T21:42:57.501Z,3.20
2022-10-02T21:45:24.541Z,2.78
2022-10-02T21:48:09.777Z,3.00
2022-10-02T21:50:38.997Z,2.42
2022-10-02T21:53:32.864Z,2.35
2022-10-02T21:56:08.208Z,2.55
2022-10-02T21:58:40.538Z,2.95
2022-10-02T22:01:25.787Z,3.00
2022-10-02T22:04:08.038Z,3.22
2022-10-02T22:06:39.415Z,3.22
2022-10-02T22:09:09.177Z,3.33
2022-10-02T22:11:35.866Z,3.63
2022-10-02T22:14:08.872Z,3.10
2022-10-02T22:16:36.175Z,2.50
2022-10-02T22:19:19.127Z,2.50
2022-10-02T22:22:04.597Z,2.63
2022-10-02T22:24:47.484Z,3.30
2022-10-02T22:27:19.506Z,2.60
2022-10-02T22:29:47.008Z,3.03
2022-10-02T22:32:34.744Z,2.50
2022-10-02T22:35:12.939Z,2.55
2022-10-02T22:37:42.210Z,2.97
2022-10-02T22:40:12.178Z,3.33
2022-10-02T22:42:41.439Z,2.73
2022-10-02T22:45:15.003Z,2.92
2022-10-02T22:48:01.517Z,3.38
2022-10-02T22:50:34.214Z,2.60
2022-10-02T22:53:06.609Z,3.17
2022-10-02T22:55:34.590Z,3.25
2022-10-02T22:58:12.641Z,2.53
2022-10-02T23:00:51.217Z,3.22
2022-10-02T23:03:37.809Z,2.67
2022-10-02T23:06:06.599Z,2.80
2022-10-02T23:08:46.110Z,2.80
2022-10-02T23:11:18.697Z,3.30
2022-10-02T23:13:54.071Z,2.72
2022-10-02T23:16:28.080Z,2.70
2022-10-02T23:19:12.478Z,2.88
2022-10-02T23:21:50.589Z,2.22
2022-10-02T23:24:17.242Z,2.78
2022-10-02T23:26:55.725Z,2.88
2022-10-02T23:29:28.338Z,2.17
2022-10-02T23:31:54.566Z,2.90
2022-10-02T23:34:41.422Z,2.78
2022-10-02T23:37:14.256Z,2.55
2022-10-02T23:40:16.218Z,2.30
2022-10-02T23:42:49.557Z,2.65
2022-10-02T23:45:35.895Z,3.03
2022-10-02T23:48:11.740Z,2.40
2022-10-02T23:50:37.951Z,2.20
2022-10-02T23:53:28.190Z,2.88
2022-10-02T23:55:54.386Z,2.65
2022-10-02T23:58:39.497Z,2.05
